METAR Data

Data at: 1301 UTC 24 May 2022

METAR for:KHYA (Hyannis/Barnstable M, MA, US)
Text:KHYA 241256Z 03008KT 10SM OVC100 13/07 A3030 RMK AO2 SLP260 T01330067
Temperature: 13.3°C ( 56°F)
Dewpoint: 6.7°C ( 44°F) [RH = 64%]
Pressure (altimeter):30.30 inches Hg (1026.2 mb) [Sea level pressure: 1026.0 mb]
Winds:from the NNE (30 degrees) at 9 MPH (8 knots; 4.1 m/s)
Visibility:10 or more sm (16+ km)
Ceiling:10000 feet AGL
Clouds: overcast cloud deck at 10000 feet AGL